sensor_id;sensor_type;location;lat;lon;timestamp;pressure;altitude;pressure_sealevel;temperature
68127;BMP180;54931;52.098;21.006;2024-01-30T00:01:14;101974.80;;;-1.26
68127;BMP180;54931;52.098;21.006;2024-01-30T00:03:48;101973.60;;;-1.26
68127;BMP180;54931;52.098;21.006;2024-01-30T00:06:19;101970.00;;;-1.30
68127;BMP180;54931;52.098;21.006;2024-01-30T00:08:48;101970.60;;;-1.30
68127;BMP180;54931;52.098;21.006;2024-01-30T00:11:18;101962.20;;;-1.30
68127;BMP180;54931;52.098;21.006;2024-01-30T00:13:46;101963.60;;;-1.30
68127;BMP180;54931;52.098;21.006;2024-01-30T00:16:22;101957.80;;;-1.24
68127;BMP180;54931;52.098;21.006;2024-01-30T00:18:52;101953.80;;;-1.20
68127;BMP180;54931;52.098;21.006;2024-01-30T00:21:21;101957.20;;;-1.20
68127;BMP180;54931;52.098;21.006;2024-01-30T00:23:48;101953.80;;;-1.20
68127;BMP180;54931;52.098;21.006;2024-01-30T00:26:16;101946.20;;;-1.20
68127;BMP180;54931;52.098;21.006;2024-01-30T00:28:44;101946.20;;;-1.20
68127;BMP180;54931;52.098;21.006;2024-01-30T00:31:11;101943.00;;;-1.20
68127;BMP180;54931;52.098;21.006;2024-01-30T00:33:42;101940.20;;;-1.20
68127;BMP180;54931;52.098;21.006;2024-01-30T00:36:09;101937.80;;;-1.16
68127;BMP180;54931;52.098;21.006;2024-01-30T00:38:38;101937.00;;;-1.12
68127;BMP180;54931;52.098;21.006;2024-01-30T00:41:05;101935.40;;;-1.10
68127;BMP180;54931;52.098;21.006;2024-01-30T00:43:34;101938.20;;;-1.10
68127;BMP180;54931;52.098;21.006;2024-01-30T00:46:01;101940.00;;;-1.10
68127;BMP180;54931;52.098;21.006;2024-01-30T00:48:29;101937.00;;;-1.10
68127;BMP180;54931;52.098;21.006;2024-01-30T00:50:56;101933.80;;;-1.10
68127;BMP180;54931;52.098;21.006;2024-01-30T00:53:24;101930.40;;;-1.10
68127;BMP180;54931;52.098;21.006;2024-01-30T00:55:51;101932.00;;;-1.08
68127;BMP180;54931;52.098;21.006;2024-01-30T00:58:19;101934.20;;;-1.00
68127;BMP180;54931;52.098;21.006;2024-01-30T01:00:46;101926.40;;;-1.00
68127;BMP180;54931;52.098;21.006;2024-01-30T01:03:14;101926.40;;;-1.00
68127;BMP180;54931;52.098;21.006;2024-01-30T01:05:41;101927.60;;;-1.00
68127;BMP180;54931;52.098;21.006;2024-01-30T01:08:09;101930.40;;;-0.98
68127;BMP180;54931;52.098;21.006;2024-01-30T01:10:36;101930.60;;;-1.00
68127;BMP180;54931;52.098;21.006;2024-01-30T01:13:03;101930.40;;;-1.00
68127;BMP180;54931;52.098;21.006;2024-01-30T01:15:31;101924.80;;;-1.00
68127;BMP180;54931;52.098;21.006;2024-01-30T01:17:58;101925.80;;;-1.00
68127;BMP180;54931;52.098;21.006;2024-01-30T01:20:26;101931.60;;;-0.90
68127;BMP180;54931;52.098;21.006;2024-01-30T01:22:53;101923.80;;;-0.90
68127;BMP180;54931;52.098;21.006;2024-01-30T01:25:21;101925.40;;;-0.90
68127;BMP180;54931;52.098;21.006;2024-01-30T01:27:49;101925.00;;;-0.90
68127;BMP180;54931;52.098;21.006;2024-01-30T01:30:18;101925.00;;;-0.90
68127;BMP180;54931;52.098;21.006;2024-01-30T01:32:49;101931.40;;;-0.94
68127;BMP180;54931;52.098;21.006;2024-01-30T01:35:24;101931.00;;;-1.00
68127;BMP180;54931;52.098;21.006;2024-01-30T01:37:53;101927.60;;;-0.90
68127;BMP180;54931;52.098;21.006;2024-01-30T01:40:26;101932.20;;;-0.90
68127;BMP180;54931;52.098;21.006;2024-01-30T01:42:55;101925.00;;;-1.00
68127;BMP180;54931;52.098;21.006;2024-01-30T01:45:23;101923.20;;;-1.04
68127;BMP180;54931;52.098;21.006;2024-01-30T01:47:51;101919.40;;;-1.10
68127;BMP180;54931;52.098;21.006;2024-01-30T01:50:21;101918.80;;;-1.20
68127;BMP180;54931;52.098;21.006;2024-01-30T01:52:50;101914.00;;;-1.30
68127;BMP180;54931;52.098;21.006;2024-01-30T01:55:21;101911.00;;;-1.30
68127;BMP180;54931;52.098;21.006;2024-01-30T01:57:51;101911.40;;;-1.40
68127;BMP180;54931;52.098;21.006;2024-01-30T02:00:20;101910.80;;;-1.40
68127;BMP180;54931;52.098;21.006;2024-01-30T02:02:49;101911.80;;;-1.50
68127;BMP180;54931;52.098;21.006;2024-01-30T02:05:18;101914.20;;;-1.54
68127;BMP180;54931;52.098;21.006;2024-01-30T02:07:46;101914.00;;;-1.52
68127;BMP180;54931;52.098;21.006;2024-01-30T02:10:14;101908.00;;;-1.60
68127;BMP180;54931;52.098;21.006;2024-01-30T02:12:41;101905.60;;;-1.70
68127;BMP180;54931;52.098;21.006;2024-01-30T02:15:13;101902.20;;;-1.70
68127;BMP180;54931;52.098;21.006;2024-01-30T02:17:41;101897.80;;;-1.70
68127;BMP180;54931;52.098;21.006;2024-01-30T02:20:10;101896.80;;;-1.78
68127;BMP180;54931;52.098;21.006;2024-01-30T02:22:38;101891.20;;;-1.78
68127;BMP180;54931;52.098;21.006;2024-01-30T02:25:07;101891.00;;;-1.80
68127;BMP180;54931;52.098;21.006;2024-01-30T02:27:35;101894.00;;;-1.80
68127;BMP180;54931;52.098;21.006;2024-01-30T02:30:03;101893.80;;;-1.80
68127;BMP180;54931;52.098;21.006;2024-01-30T02:32:31;101894.60;;;-1.80
68127;BMP180;54931;52.098;21.006;2024-01-30T02:34:59;101893.60;;;-1.78
68127;BMP180;54931;52.098;21.006;2024-01-30T02:37:26;101894.40;;;-1.78
68127;BMP180;54931;52.098;21.006;2024-01-30T02:39:53;101884.00;;;-1.78
68127;BMP180;54931;52.098;21.006;2024-01-30T02:42:21;101896.00;;;-1.70
68127;BMP180;54931;52.098;21.006;2024-01-30T02:44:50;101899.20;;;-1.70
68127;BMP180;54931;52.098;21.006;2024-01-30T02:47:19;101899.20;;;-1.70
68127;BMP180;54931;52.098;21.006;2024-01-30T02:49:46;101897.40;;;-1.72
68127;BMP180;54931;52.098;21.006;2024-01-30T02:52:14;101894.40;;;-1.72
68127;BMP180;54931;52.098;21.006;2024-01-30T02:54:41;101893.80;;;-1.72
68127;BMP180;54931;52.098;21.006;2024-01-30T02:57:09;101893.80;;;-1.80
68127;BMP180;54931;52.098;21.006;2024-01-30T02:59:36;101897.20;;;-1.80
68127;BMP180;54931;52.098;21.006;2024-01-30T03:02:04;101898.20;;;-1.90
68127;BMP180;54931;52.098;21.006;2024-01-30T03:04:32;101894.40;;;-1.92
68127;BMP180;54931;52.098;21.006;2024-01-30T03:06:59;101888.60;;;-1.98
68127;BMP180;54931;52.098;21.006;2024-01-30T03:09:27;101889.00;;;-2.00
68127;BMP180;54931;52.098;21.006;2024-01-30T03:11:55;101885.40;;;-2.02
68127;BMP180;54931;52.098;21.006;2024-01-30T03:14:22;101890.20;;;-2.10
68127;BMP180;54931;52.098;21.006;2024-01-30T03:16:50;101885.80;;;-2.12
68127;BMP180;54931;52.098;21.006;2024-01-30T03:19:18;101885.80;;;-2.20
68127;BMP180;54931;52.098;21.006;2024-01-30T03:21:46;101886.80;;;-2.20
68127;BMP180;54931;52.098;21.006;2024-01-30T03:24:13;101889.60;;;-2.28
68127;BMP180;54931;52.098;21.006;2024-01-30T03:26:41;101888.20;;;-2.30
68127;BMP180;54931;52.098;21.006;2024-01-30T03:29:09;101886.40;;;-2.30
68127;BMP180;54931;52.098;21.006;2024-01-30T03:31:37;101887.20;;;-2.30
68127;BMP180;54931;52.098;21.006;2024-01-30T03:34:04;101895.00;;;-2.30
68127;BMP180;54931;52.098;21.006;2024-01-30T03:36:31;101893.00;;;-2.30
68127;BMP180;54931;52.098;21.006;2024-01-30T03:39:02;101887.00;;;-2.30
68127;BMP180;54931;52.098;21.006;2024-01-30T03:41:29;101889.20;;;-2.28
68127;BMP180;54931;52.098;21.006;2024-01-30T03:43:57;101883.80;;;-2.20
68127;BMP180;54931;52.098;21.006;2024-01-30T03:46:24;101888.00;;;-2.20
68127;BMP180;54931;52.098;21.006;2024-01-30T03:48:52;101886.20;;;-2.20
68127;BMP180;54931;52.098;21.006;2024-01-30T03:51:19;101888.80;;;-2.10
68127;BMP180;54931;52.098;21.006;2024-01-30T03:53:47;101891.80;;;-2.10
68127;BMP180;54931;52.098;21.006;2024-01-30T03:56:14;101888.60;;;-2.00
68127;BMP180;54931;52.098;21.006;2024-01-30T03:58:42;101885.20;;;-2.00
68127;BMP180;54931;52.098;21.006;2024-01-30T04:01:14;101883.60;;;-1.90
68127;BMP180;54931;52.098;21.006;2024-01-30T04:03:42;101889.80;;;-1.80
68127;BMP180;54931;52.098;21.006;2024-01-30T04:06:12;101886.40;;;-1.80
68127;BMP180;54931;52.098;21.006;2024-01-30T04:08:39;101893.60;;;-1.80
68127;BMP180;54931;52.098;21.006;2024-01-30T04:11:09;101887.80;;;-1.80
68127;BMP180;54931;52.098;21.006;2024-01-30T04:13:36;101886.60;;;-1.70
68127;BMP180;54931;52.098;21.006;2024-01-30T04:16:05;101879.20;;;-1.70
68127;BMP180;54931;52.098;21.006;2024-01-30T04:18:32;101881.00;;;-1.70
68127;BMP180;54931;52.098;21.006;2024-01-30T04:21:01;101882.00;;;-1.70
68127;BMP180;54931;52.098;21.006;2024-01-30T04:23:29;101882.20;;;-1.70
68127;BMP180;54931;52.098;21.006;2024-01-30T04:25:56;101887.00;;;-1.70
68127;BMP180;54931;52.098;21.006;2024-01-30T04:28:24;101882.60;;;-1.76
68127;BMP180;54931;52.098;21.006;2024-01-30T04:30:51;101884.20;;;-1.80
68127;BMP180;54931;52.098;21.006;2024-01-30T04:33:19;101885.40;;;-1.80
68127;BMP180;54931;52.098;21.006;2024-01-30T04:35:47;101886.00;;;-1.80
68127;BMP180;54931;52.098;21.006;2024-01-30T04:38:14;101885.60;;;-1.76
68127;BMP180;54931;52.098;21.006;2024-01-30T04:40:42;101881.40;;;-1.78
68127;BMP180;54931;52.098;21.006;2024-01-30T04:43:09;101881.40;;;-1.80
68127;BMP180;54931;52.098;21.006;2024-01-30T04:45:37;101882.00;;;-1.80
68127;BMP180;54931;52.098;21.006;2024-01-30T04:48:05;101881.00;;;-1.80
68127;BMP180;54931;52.098;21.006;2024-01-30T04:50:32;101873.60;;;-1.80
68127;BMP180;54931;52.098;21.006;2024-01-30T04:53:00;101878.00;;;-1.80
68127;BMP180;54931;52.098;21.006;2024-01-30T04:55:27;101876.80;;;-1.80
68127;BMP180;54931;52.098;21.006;2024-01-30T04:57:55;101877.40;;;-1.86
68127;BMP180;54931;52.098;21.006;2024-01-30T05:00:22;101878.20;;;-1.88
68127;BMP180;54931;52.098;21.006;2024-01-30T05:02:50;101878.00;;;-1.80
68127;BMP180;54931;52.098;21.006;2024-01-30T05:05:17;101877.00;;;-1.80
68127;BMP180;54931;52.098;21.006;2024-01-30T05:07:45;101877.60;;;-1.80
68127;BMP180;54931;52.098;21.006;2024-01-30T05:10:13;101880.20;;;-1.80
68127;BMP180;54931;52.098;21.006;2024-01-30T05:12:41;101877.00;;;-1.80
68127;BMP180;54931;52.098;21.006;2024-01-30T05:15:09;101875.80;;;-1.80
68127;BMP180;54931;52.098;21.006;2024-01-30T05:17:37;101872.60;;;-1.80
68127;BMP180;54931;52.098;21.006;2024-01-30T05:20:05;101873.40;;;-1.90
68127;BMP180;54931;52.098;21.006;2024-01-30T05:22:35;101873.20;;;-1.90
68127;BMP180;54931;52.098;21.006;2024-01-30T05:25:04;101872.40;;;-1.90
68127;BMP180;54931;52.098;21.006;2024-01-30T05:27:32;101874.80;;;-1.90
68127;BMP180;54931;52.098;21.006;2024-01-30T05:30:00;101870.20;;;-1.90
68127;BMP180;54931;52.098;21.006;2024-01-30T05:32:28;101862.60;;;-1.94
68127;BMP180;54931;52.098;21.006;2024-01-30T05:34:55;101861.20;;;-1.92
68127;BMP180;54931;52.098;21.006;2024-01-30T05:37:23;101863.00;;;-1.90
68127;BMP180;54931;52.098;21.006;2024-01-30T05:39:50;101859.40;;;-1.90
68127;BMP180;54931;52.098;21.006;2024-01-30T05:42:18;101863.60;;;-1.90
68127;BMP180;54931;52.098;21.006;2024-01-30T05:44:46;101858.20;;;-1.90
68127;BMP180;54931;52.098;21.006;2024-01-30T05:47:14;101864.40;;;-1.90
68127;BMP180;54931;52.098;21.006;2024-01-30T05:49:41;101865.60;;;-1.90
68127;BMP180;54931;52.098;21.006;2024-01-30T05:52:09;101867.00;;;-1.88
68127;BMP180;54931;52.098;21.006;2024-01-30T05:54:37;101870.20;;;-1.88
68127;BMP180;54931;52.098;21.006;2024-01-30T05:57:05;101870.20;;;-1.80
68127;BMP180;54931;52.098;21.006;2024-01-30T05:59:32;101871.60;;;-1.80
68127;BMP180;54931;52.098;21.006;2024-01-30T06:02:00;101874.00;;;-1.70
68127;BMP180;54931;52.098;21.006;2024-01-30T06:04:27;101878.60;;;-1.70
68127;BMP180;54931;52.098;21.006;2024-01-30T06:06:55;101881.20;;;-1.64
68127;BMP180;54931;52.098;21.006;2024-01-30T06:09:23;101879.00;;;-1.60
68127;BMP180;54931;52.098;21.006;2024-01-30T06:11:50;101874.20;;;-1.60
68127;BMP180;54931;52.098;21.006;2024-01-30T06:14:19;101872.60;;;-1.60
68127;BMP180;54931;52.098;21.006;2024-01-30T06:16:46;101874.80;;;-1.50
68127;BMP180;54931;52.098;21.006;2024-01-30T06:19:14;101879.00;;;-1.50
68127;BMP180;54931;52.098;21.006;2024-01-30T06:21:41;101877.40;;;-1.50
68127;BMP180;54931;52.098;21.006;2024-01-30T06:24:09;101876.40;;;-1.44
68127;BMP180;54931;52.098;21.006;2024-01-30T06:26:36;101872.80;;;-1.40
68127;BMP180;54931;52.098;21.006;2024-01-30T06:29:04;101872.20;;;-1.40
68127;BMP180;54931;52.098;21.006;2024-01-30T06:31:32;101873.60;;;-1.36
68127;BMP180;54931;52.098;21.006;2024-01-30T06:33:59;101873.20;;;-1.30
68127;BMP180;54931;52.098;21.006;2024-01-30T06:36:27;101869.40;;;-1.30
68127;BMP180;54931;52.098;21.006;2024-01-30T06:38:55;101866.00;;;-1.28
68127;BMP180;54931;52.098;21.006;2024-01-30T06:41:22;101860.80;;;-1.20
68127;BMP180;54931;52.098;21.006;2024-01-30T06:43:50;101860.40;;;-1.20
68127;BMP180;54931;52.098;21.006;2024-01-30T06:46:17;101864.00;;;-1.12
68127;BMP180;54931;52.098;21.006;2024-01-30T06:48:45;101861.20;;;-1.10
68127;BMP180;54931;52.098;21.006;2024-01-30T06:51:13;101868.40;;;-1.10
68127;BMP180;54931;52.098;21.006;2024-01-30T06:53:41;101872.80;;;-1.02
68127;BMP180;54931;52.098;21.006;2024-01-30T06:56:09;101876.00;;;-1.00
68127;BMP180;54931;52.098;21.006;2024-01-30T06:58:36;101875.20;;;-1.00
68127;BMP180;54931;52.098;21.006;2024-01-30T07:01:04;101877.60;;;-1.00
68127;BMP180;54931;52.098;21.006;2024-01-30T07:03:32;101879.40;;;-1.00
68127;BMP180;54931;52.098;21.006;2024-01-30T07:05:59;101878.40;;;-0.90
68127;BMP180;54931;52.098;21.006;2024-01-30T07:08:27;101876.20;;;-0.90
68127;BMP180;54931;52.098;21.006;2024-01-30T07:10:54;101876.00;;;-0.82
68127;BMP180;54931;52.098;21.006;2024-01-30T07:13:23;101877.20;;;-0.80
68127;BMP180;54931;52.098;21.006;2024-01-30T07:15:52;101881.20;;;-0.80
68127;BMP180;54931;52.098;21.006;2024-01-30T07:18:19;101883.00;;;-0.72
68127;BMP180;54931;52.098;21.006;2024-01-30T07:20:47;101879.80;;;-0.70
68127;BMP180;54931;52.098;21.006;2024-01-30T07:23:16;101876.20;;;-0.68
68127;BMP180;54931;52.098;21.006;2024-01-30T07:25:45;101881.80;;;-0.50
68127;BMP180;54931;52.098;21.006;2024-01-30T07:28:12;101883.80;;;-0.30
68127;BMP180;54931;52.098;21.006;2024-01-30T07:30:41;101884.20;;;0.00
68127;BMP180;54931;52.098;21.006;2024-01-30T07:33:09;101883.00;;;0.36
68127;BMP180;54931;52.098;21.006;2024-01-30T07:35:36;101879.80;;;0.82
68127;BMP180;54931;52.098;21.006;2024-01-30T07:38:04;101877.20;;;1.32
68127;BMP180;54931;52.098;21.006;2024-01-30T07:40:32;101879.20;;;1.70
68127;BMP180;54931;52.098;21.006;2024-01-30T07:43:00;101881.00;;;2.08
68127;BMP180;54931;52.098;21.006;2024-01-30T07:45:28;101882.80;;;2.44
68127;BMP180;54931;52.098;21.006;2024-01-30T07:48:00;101882.00;;;2.70
68127;BMP180;54931;52.098;21.006;2024-01-30T07:50:27;101880.60;;;2.86
68127;BMP180;54931;52.098;21.006;2024-01-30T07:53:00;101892.40;;;2.90
68127;BMP180;54931;52.098;21.006;2024-01-30T07:55:28;101886.40;;;2.60
68127;BMP180;54931;52.098;21.006;2024-01-30T07:57:56;101883.20;;;2.70
68127;BMP180;54931;52.098;21.006;2024-01-30T08:00:23;101882.80;;;2.82
68127;BMP180;54931;52.098;21.006;2024-01-30T08:02:51;101876.20;;;3.02
68127;BMP180;54931;52.098;21.006;2024-01-30T08:05:22;101883.20;;;3.10
68127;BMP180;54931;52.098;21.006;2024-01-30T08:07:51;101884.60;;;3.20
68127;BMP180;54931;52.098;21.006;2024-01-30T08:10:18;101878.00;;;3.30
68127;BMP180;54931;52.098;21.006;2024-01-30T08:12:46;101878.40;;;3.46
68127;BMP180;54931;52.098;21.006;2024-01-30T08:15:14;101883.00;;;3.66
68127;BMP180;54931;52.098;21.006;2024-01-30T08:17:42;101882.60;;;4.00
68127;BMP180;54931;52.098;21.006;2024-01-30T08:20:10;101883.80;;;4.26
68127;BMP180;54931;52.098;21.006;2024-01-30T08:22:39;101888.80;;;4.40
68127;BMP180;54931;52.098;21.006;2024-01-30T08:25:10;101880.20;;;4.56
68127;BMP180;54931;52.098;21.006;2024-01-30T08:27:37;101886.20;;;4.90
68127;BMP180;54931;52.098;21.006;2024-01-30T08:30:09;101884.00;;;5.10
68127;BMP180;54931;52.098;21.006;2024-01-30T08:32:37;101876.80;;;5.20
68127;BMP180;54931;52.098;21.006;2024-01-30T08:35:05;101884.00;;;5.10
68127;BMP180;54931;52.098;21.006;2024-01-30T08:37:33;101880.20;;;5.10
68127;BMP180;54931;52.098;21.006;2024-01-30T08:40:01;101882.60;;;5.40
68127;BMP180;54931;52.098;21.006;2024-01-30T08:42:31;101875.00;;;5.80
68127;BMP180;54931;52.098;21.006;2024-01-30T08:44:58;101879.40;;;6.10
68127;BMP180;54931;52.098;21.006;2024-01-30T08:47:26;101874.80;;;6.38
68127;BMP180;54931;52.098;21.006;2024-01-30T08:49:53;101873.40;;;6.60
68127;BMP180;54931;52.098;21.006;2024-01-30T08:52:21;101877.60;;;6.70
68127;BMP180;54931;52.098;21.006;2024-01-30T08:54:49;101877.80;;;6.76
68127;BMP180;54931;52.098;21.006;2024-01-30T08:57:17;101877.20;;;6.66
68127;BMP180;54931;52.098;21.006;2024-01-30T08:59:45;101882.20;;;6.70
68127;BMP180;54931;52.098;21.006;2024-01-30T09:02:14;101881.00;;;6.90
68127;BMP180;54931;52.098;21.006;2024-01-30T09:04:43;101880.00;;;7.16
68127;BMP180;54931;52.098;21.006;2024-01-30T09:07:11;101882.00;;;7.46
68127;BMP180;54931;52.098;21.006;2024-01-30T09:09:41;101880.20;;;7.56
68127;BMP180;54931;52.098;21.006;2024-01-30T09:12:09;101881.40;;;7.60
68127;BMP180;54931;52.098;21.006;2024-01-30T09:14:40;101880.80;;;7.80
68127;BMP180;54931;52.098;21.006;2024-01-30T09:17:08;101887.40;;;7.80
68127;BMP180;54931;52.098;21.006;2024-01-30T09:19:36;101889.20;;;7.98
68127;BMP180;54931;52.098;21.006;2024-01-30T09:22:03;101884.00;;;8.16
68127;BMP180;54931;52.098;21.006;2024-01-30T09:24:31;101879.80;;;8.38
68127;BMP180;54931;52.098;21.006;2024-01-30T09:26:58;101885.40;;;8.42
68127;BMP180;54931;52.098;21.006;2024-01-30T09:29:25;101888.20;;;8.50
68127;BMP180;54931;52.098;21.006;2024-01-30T09:31:53;101891.00;;;8.60
68127;BMP180;54931;52.098;21.006;2024-01-30T09:34:21;101885.00;;;8.68
68127;BMP180;54931;52.098;21.006;2024-01-30T09:36:48;101889.80;;;8.60
68127;BMP180;54931;52.098;21.006;2024-01-30T09:39:16;101887.60;;;8.68
68127;BMP180;54931;52.098;21.006;2024-01-30T09:42:05;101886.40;;;8.80
68127;BMP180;54931;52.098;21.006;2024-01-30T09:44:37;101885.60;;;8.68
68127;BMP180;54931;52.098;21.006;2024-01-30T09:47:05;101884.60;;;8.72
68127;BMP180;54931;52.098;21.006;2024-01-30T09:49:33;101880.20;;;9.00
68127;BMP180;54931;52.098;21.006;2024-01-30T09:52:02;101876.80;;;9.10
68127;BMP180;54931;52.098;21.006;2024-01-30T09:54:31;101875.80;;;9.10
68127;BMP180;54931;52.098;21.006;2024-01-30T09:56:58;101868.60;;;8.80
68127;BMP180;54931;52.098;21.006;2024-01-30T09:59:26;101870.20;;;8.60
68127;BMP180;54931;52.098;21.006;2024-01-30T10:01:54;101872.60;;;8.70
68127;BMP180;54931;52.098;21.006;2024-01-30T10:04:21;101868.00;;;8.62
68127;BMP180;54931;52.098;21.006;2024-01-30T10:06:50;101866.40;;;8.60
68127;BMP180;54931;52.098;21.006;2024-01-30T10:09:18;101862.00;;;8.76
68127;BMP180;54931;52.098;21.006;2024-01-30T10:11:47;101862.40;;;8.90
68127;BMP180;54931;52.098;21.006;2024-01-30T10:14:16;101861.80;;;9.10
68127;BMP180;54931;52.098;21.006;2024-01-30T10:16:46;101861.40;;;9.16
68127;BMP180;54931;52.098;21.006;2024-01-30T10:19:13;101865.20;;;9.20
68127;BMP180;54931;52.098;21.006;2024-01-30T10:21:41;101861.60;;;9.20
68127;BMP180;54931;52.098;21.006;2024-01-30T10:24:10;101859.00;;;9.20
68127;BMP180;54931;52.098;21.006;2024-01-30T10:26:39;101862.80;;;9.20
68127;BMP180;54931;52.098;21.006;2024-01-30T10:29:09;101857.40;;;9.16
68127;BMP180;54931;52.098;21.006;2024-01-30T10:31:37;101851.80;;;9.02
68127;BMP180;54931;52.098;21.006;2024-01-30T10:34:04;101848.60;;;9.00
68127;BMP180;54931;52.098;21.006;2024-01-30T10:36:36;101845.80;;;8.90
68127;BMP180;54931;52.098;21.006;2024-01-30T10:39:06;101841.60;;;8.82
68127;BMP180;54931;52.098;21.006;2024-01-30T10:41:43;101835.40;;;8.80
68127;BMP180;54931;52.098;21.006;2024-01-30T10:44:11;101837.20;;;8.80
68127;BMP180;54931;52.098;21.006;2024-01-30T10:46:41;101834.60;;;8.60
68127;BMP180;54931;52.098;21.006;2024-01-30T10:49:10;101841.40;;;8.50
68127;BMP180;54931;52.098;21.006;2024-01-30T10:51:39;101832.60;;;8.24
68127;BMP180;54931;52.098;21.006;2024-01-30T10:54:07;101835.60;;;8.10
68127;BMP180;54931;52.098;21.006;2024-01-30T10:56:35;101826.80;;;8.10
68127;BMP180;54931;52.098;21.006;2024-01-30T10:59:04;101821.80;;;8.10
68127;BMP180;54931;52.098;21.006;2024-01-30T11:01:34;101820.00;;;8.10
68127;BMP180;54931;52.098;21.006;2024-01-30T11:04:03;101815.20;;;8.12
68127;BMP180;54931;52.098;21.006;2024-01-30T11:06:41;101811.60;;;8.10
68127;BMP180;54931;52.098;21.006;2024-01-30T11:09:11;101812.00;;;8.10
68127;BMP180;54931;52.098;21.006;2024-01-30T11:11:59;101810.20;;;7.98
68127;BMP180;54931;52.098;21.006;2024-01-30T11:14:32;101804.60;;;8.10
68127;BMP180;54931;52.098;21.006;2024-01-30T11:17:00;101807.00;;;8.20
68127;BMP180;54931;52.098;21.006;2024-01-30T11:19:31;101803.40;;;8.10
68127;BMP180;54931;52.098;21.006;2024-01-30T11:22:00;101798.40;;;8.12
68127;BMP180;54931;52.098;21.006;2024-01-30T11:24:28;101797.60;;;8.10
68127;BMP180;54931;52.098;21.006;2024-01-30T11:27:01;101793.80;;;8.10
68127;BMP180;54931;52.098;21.006;2024-01-30T11:29:40;101790.80;;;8.10
68127;BMP180;54931;52.098;21.006;2024-01-30T11:32:08;101786.00;;;8.20
68127;BMP180;54931;52.098;21.006;2024-01-30T11:34:40;101792.40;;;8.38
68127;BMP180;54931;52.098;21.006;2024-01-30T11:37:11;101788.60;;;8.40
68127;BMP180;54931;52.098;21.006;2024-01-30T11:39:41;101788.60;;;8.50
68127;BMP180;54931;52.098;21.006;2024-01-30T11:42:11;101786.20;;;8.50
68127;BMP180;54931;52.098;21.006;2024-01-30T11:44:48;101779.40;;;8.30
68127;BMP180;54931;52.098;21.006;2024-01-30T11:47:16;101779.00;;;8.20
68127;BMP180;54931;52.098;21.006;2024-01-30T11:49:43;101778.00;;;8.10
68127;BMP180;54931;52.098;21.006;2024-01-30T11:52:13;101770.80;;;8.00
68127;BMP180;54931;52.098;21.006;2024-01-30T11:54:41;101776.00;;;8.00
68127;BMP180;54931;52.098;21.006;2024-01-30T11:57:09;101769.60;;;7.80
68127;BMP180;54931;52.098;21.006;2024-01-30T11:59:37;101768.40;;;7.70
68127;BMP180;54931;52.098;21.006;2024-01-30T12:02:06;101771.80;;;7.60
68127;BMP180;54931;52.098;21.006;2024-01-30T12:04:33;101765.80;;;7.68
68127;BMP180;54931;52.098;21.006;2024-01-30T12:07:01;101761.20;;;7.60
68127;BMP180;54931;52.098;21.006;2024-01-30T12:09:29;101756.80;;;7.60
68127;BMP180;54931;52.098;21.006;2024-01-30T12:11:56;101754.20;;;7.66
68127;BMP180;54931;52.098;21.006;2024-01-30T12:14:24;101756.00;;;7.60
68127;BMP180;54931;52.098;21.006;2024-01-30T12:16:52;101750.40;;;7.44
68127;BMP180;54931;52.098;21.006;2024-01-30T12:19:26;101759.80;;;7.60
68127;BMP180;54931;52.098;21.006;2024-01-30T12:21:57;101755.80;;;7.60
68127;BMP180;54931;52.098;21.006;2024-01-30T12:24:29;101755.60;;;7.70
68127;BMP180;54931;52.098;21.006;2024-01-30T12:26:59;101753.00;;;7.70
68127;BMP180;54931;52.098;21.006;2024-01-30T12:29:27;101754.00;;;7.80
68127;BMP180;54931;52.098;21.006;2024-01-30T12:32:00;101759.00;;;7.90
68127;BMP180;54931;52.098;21.006;2024-01-30T12:34:27;101753.40;;;7.90
68127;BMP180;54931;52.098;21.006;2024-01-30T12:36:55;101751.00;;;7.90
68127;BMP180;54931;52.098;21.006;2024-01-30T12:39:22;101750.80;;;8.04
68127;BMP180;54931;52.098;21.006;2024-01-30T12:41:51;101744.40;;;8.20
68127;BMP180;54931;52.098;21.006;2024-01-30T12:44:19;101744.00;;;8.20
68127;BMP180;54931;52.098;21.006;2024-01-30T12:46:47;101751.20;;;8.20
68127;BMP180;54931;52.098;21.006;2024-01-30T12:49:14;101747.00;;;8.20
68127;BMP180;54931;52.098;21.006;2024-01-30T12:51:43;101743.60;;;8.28
68127;BMP180;54931;52.098;21.006;2024-01-30T12:54:12;101741.80;;;8.30
68127;BMP180;54931;52.098;21.006;2024-01-30T12:56:40;101741.80;;;8.22
68127;BMP180;54931;52.098;21.006;2024-01-30T12:59:09;101742.80;;;8.16
68127;BMP180;54931;52.098;21.006;2024-01-30T13:01:36;101738.40;;;7.98
68127;BMP180;54931;52.098;21.006;2024-01-30T13:04:04;101736.20;;;7.90
68127;BMP180;54931;52.098;21.006;2024-01-30T13:06:31;101729.20;;;7.84
68127;BMP180;54931;52.098;21.006;2024-01-30T13:08:59;101734.80;;;7.90
68127;BMP180;54931;52.098;21.006;2024-01-30T13:11:27;101732.00;;;7.90
68127;BMP180;54931;52.098;21.006;2024-01-30T13:13:54;101728.40;;;7.92
68127;BMP180;54931;52.098;21.006;2024-01-30T13:16:22;101724.80;;;7.90
68127;BMP180;54931;52.098;21.006;2024-01-30T13:18:50;101728.80;;;7.90
68127;BMP180;54931;52.098;21.006;2024-01-30T13:21:17;101728.20;;;7.78
68127;BMP180;54931;52.098;21.006;2024-01-30T13:23:45;101729.40;;;7.60
68127;BMP180;54931;52.098;21.006;2024-01-30T13:26:12;101733.00;;;7.54
68127;BMP180;54931;52.098;21.006;2024-01-30T13:28:40;101728.40;;;7.50
68127;BMP180;54931;52.098;21.006;2024-01-30T13:31:08;101728.60;;;7.40
68127;BMP180;54931;52.098;21.006;2024-01-30T13:33:36;101725.80;;;7.30
68127;BMP180;54931;52.098;21.006;2024-01-30T13:36:04;101725.20;;;7.22
68127;BMP180;54931;52.098;21.006;2024-01-30T13:38:31;101728.40;;;7.20
68127;BMP180;54931;52.098;21.006;2024-01-30T13:40:59;101725.80;;;7.10
68127;BMP180;54931;52.098;21.006;2024-01-30T13:43:27;101728.00;;;7.00
68127;BMP180;54931;52.098;21.006;2024-01-30T13:45:54;101733.60;;;7.00
68127;BMP180;54931;52.098;21.006;2024-01-30T13:48:22;101734.20;;;6.90
68127;BMP180;54931;52.098;21.006;2024-01-30T13:50:50;101735.20;;;6.90
68127;BMP180;54931;52.098;21.006;2024-01-30T13:53:18;101733.20;;;6.80
68127;BMP180;54931;52.098;21.006;2024-01-30T13:55:45;101728.60;;;6.80